sensor_id;sensor_type;location;lat;lon;timestamp;P1;durP1;ratioP1;P2;durP2;ratioP2
65831;SDS011;52593;42.648;23.332;2022-10-31T00:00:21;7.53;;;3.20;;
65831;SDS011;52593;42.648;23.332;2022-10-31T00:02:47;7.15;;;2.80;;
65831;SDS011;52593;42.648;23.332;2022-10-31T00:05:12;6.07;;;2.43;;
65831;SDS011;52593;42.648;23.332;2022-10-31T00:07:37;7.20;;;2.90;;
65831;SDS011;52593;42.648;23.332;2022-10-31T00:10:03;7.27;;;2.90;;
65831;SDS011;52593;42.648;23.332;2022-10-31T00:12:29;7.30;;;2.80;;
65831;SDS011;52593;42.648;23.332;2022-10-31T00:14:54;7.50;;;2.77;;
65831;SDS011;52593;42.648;23.332;2022-10-31T00:17:20;7.23;;;2.83;;
65831;SDS011;52593;42.648;23.332;2022-10-31T00:19:45;7.50;;;2.77;;
65831;SDS011;52593;42.648;23.332;2022-10-31T00:22:10;10.97;;;3.00;;
65831;SDS011;52593;42.648;23.332;2022-10-31T00:24:36;7.33;;;2.60;;
65831;SDS011;52593;42.648;23.332;2022-10-31T00:27:01;7.37;;;2.53;;
65831;SDS011;52593;42.648;23.332;2022-10-31T00:29:26;7.00;;;2.40;;
65831;SDS011;52593;42.648;23.332;2022-10-31T00:31:52;6.97;;;2.90;;
65831;SDS011;52593;42.648;23.332;2022-10-31T00:34:18;6.40;;;2.40;;
65831;SDS011;52593;42.648;23.332;2022-10-31T00:36:43;7.40;;;2.90;;
65831;SDS011;52593;42.648;23.332;2022-10-31T00:39:09;8.37;;;2.70;;
65831;SDS011;52593;42.648;23.332;2022-10-31T00:41:34;7.38;;;2.72;;
65831;SDS011;52593;42.648;23.332;2022-10-31T00:43:59;7.90;;;2.80;;
65831;SDS011;52593;42.648;23.332;2022-10-31T00:46:25;8.70;;;2.90;;
65831;SDS011;52593;42.648;23.332;2022-10-31T00:48:50;8.27;;;2.80;;
65831;SDS011;52593;42.648;23.332;2022-10-31T00:51:16;8.53;;;3.10;;
65831;SDS011;52593;42.648;23.332;2022-10-31T00:53:41;7.50;;;3.13;;
65831;SDS011;52593;42.648;23.332;2022-10-31T00:56:06;7.67;;;3.00;;
65831;SDS011;52593;42.648;23.332;2022-10-31T00:58:32;7.57;;;2.70;;
65831;SDS011;52593;42.648;23.332;2022-10-31T01:00:57;9.13;;;2.70;;
65831;SDS011;52593;42.648;23.332;2022-10-31T01:03:23;7.93;;;3.00;;
65831;SDS011;52593;42.648;23.332;2022-10-31T01:05:57;8.15;;;3.20;;
65831;SDS011;52593;42.648;23.332;2022-10-31T01:08:22;8.70;;;3.03;;
65831;SDS011;52593;42.648;23.332;2022-10-31T01:10:57;7.43;;;2.90;;
65831;SDS011;52593;42.648;23.332;2022-10-31T01:13:23;7.85;;;2.78;;
65831;SDS011;52593;42.648;23.332;2022-10-31T01:15:53;9.60;;;2.80;;
65831;SDS011;52593;42.648;23.332;2022-10-31T01:18:19;6.50;;;2.75;;
65831;SDS011;52593;42.648;23.332;2022-10-31T01:20:45;7.50;;;2.70;;
65831;SDS011;52593;42.648;23.332;2022-10-31T01:23:10;8.17;;;3.20;;
65831;SDS011;52593;42.648;23.332;2022-10-31T01:25:35;8.37;;;3.13;;
65831;SDS011;52593;42.648;23.332;2022-10-31T01:28:01;6.63;;;2.77;;
65831;SDS011;52593;42.648;23.332;2022-10-31T01:30:26;9.33;;;2.90;;
65831;SDS011;52593;42.648;23.332;2022-10-31T01:32:51;7.63;;;2.78;;
65831;SDS011;52593;42.648;23.332;2022-10-31T01:35:17;7.67;;;2.90;;
65831;SDS011;52593;42.648;23.332;2022-10-31T01:37:42;9.60;;;3.03;;
65831;SDS011;52593;42.648;23.332;2022-10-31T01:40:08;9.33;;;3.00;;
65831;SDS011;52593;42.648;23.332;2022-10-31T01:42:34;8.25;;;3.03;;
65831;SDS011;52593;42.648;23.332;2022-10-31T01:45:00;9.47;;;3.37;;
65831;SDS011;52593;42.648;23.332;2022-10-31T01:47:47;11.82;;;3.67;;
65831;SDS011;52593;42.648;23.332;2022-10-31T01:50:14;8.68;;;3.75;;
65831;SDS011;52593;42.648;23.332;2022-10-31T01:52:49;9.35;;;3.05;;
65831;SDS011;52593;42.648;23.332;2022-10-31T01:55:18;8.73;;;3.67;;
65831;SDS011;52593;42.648;23.332;2022-10-31T01:57:52;10.98;;;3.63;;
65831;SDS011;52593;42.648;23.332;2022-10-31T02:00:20;8.15;;;3.13;;
65831;SDS011;52593;42.648;23.332;2022-10-31T02:02:46;8.70;;;3.63;;
65831;SDS011;52593;42.648;23.332;2022-10-31T02:05:16;8.13;;;3.83;;
65831;SDS011;52593;42.648;23.332;2022-10-31T02:10:29;9.50;;;3.85;;
65831;SDS011;52593;42.648;23.332;2022-10-31T02:12:57;9.73;;;3.60;;
65831;SDS011;52593;42.648;23.332;2022-10-31T02:15:24;7.78;;;3.38;;
65831;SDS011;52593;42.648;23.332;2022-10-31T02:17:50;9.17;;;3.73;;
65831;SDS011;52593;42.648;23.332;2022-10-31T02:20:17;10.53;;;4.07;;
65831;SDS011;52593;42.648;23.332;2022-10-31T02:33:48;8.30;;;3.53;;
65831;SDS011;52593;42.648;23.332;2022-10-31T02:38:55;10.32;;;4.22;;
65831;SDS011;52593;42.648;23.332;2022-10-31T02:41:34;11.68;;;4.32;;
65831;SDS011;52593;42.648;23.332;2022-10-31T02:44:27;10.45;;;4.35;;
65831;SDS011;52593;42.648;23.332;2022-10-31T02:47:15;9.67;;;4.00;;
65831;SDS011;52593;42.648;23.332;2022-10-31T02:49:45;12.32;;;4.75;;
65831;SDS011;52593;42.648;23.332;2022-10-31T02:54:46;9.35;;;4.60;;
65831;SDS011;52593;42.648;23.332;2022-10-31T02:57:13;9.70;;;4.50;;
65831;SDS011;52593;42.648;23.332;2022-10-31T02:59:43;12.20;;;4.50;;
65831;SDS011;52593;42.648;23.332;2022-10-31T03:02:55;8.82;;;4.30;;
65831;SDS011;52593;42.648;23.332;2022-10-31T03:05:20;10.05;;;4.35;;
65831;SDS011;52593;42.648;23.332;2022-10-31T03:11:01;10.43;;;4.30;;
65831;SDS011;52593;42.648;23.332;2022-10-31T03:13:32;9.20;;;4.50;;
65831;SDS011;52593;42.648;23.332;2022-10-31T03:16:15;10.70;;;4.50;;
65831;SDS011;52593;42.648;23.332;2022-10-31T03:21:22;9.27;;;4.47;;
65831;SDS011;52593;42.648;23.332;2022-10-31T03:23:52;10.15;;;4.13;;
65831;SDS011;52593;42.648;23.332;2022-10-31T03:26:20;10.50;;;4.37;;
65831;SDS011;52593;42.648;23.332;2022-10-31T03:28:51;12.18;;;4.45;;
65831;SDS011;52593;42.648;23.332;2022-10-31T03:31:23;10.77;;;4.50;;
65831;SDS011;52593;42.648;23.332;2022-10-31T03:33:53;10.05;;;4.60;;
65831;SDS011;52593;42.648;23.332;2022-10-31T03:36:22;12.23;;;4.68;;
65831;SDS011;52593;42.648;23.332;2022-10-31T03:38:48;12.00;;;4.47;;
65831;SDS011;52593;42.648;23.332;2022-10-31T03:41:18;9.45;;;4.25;;
65831;SDS011;52593;42.648;23.332;2022-10-31T03:43:55;10.05;;;4.20;;
65831;SDS011;52593;42.648;23.332;2022-10-31T03:46:28;9.60;;;4.13;;
65831;SDS011;52593;42.648;23.332;2022-10-31T03:48:54;10.80;;;4.70;;
65831;SDS011;52593;42.648;23.332;2022-10-31T03:54:01;10.17;;;5.40;;
65831;SDS011;52593;42.648;23.332;2022-10-31T03:56:37;14.00;;;5.90;;
65831;SDS011;52593;42.648;23.332;2022-10-31T03:59:15;12.93;;;6.18;;
65831;SDS011;52593;42.648;23.332;2022-10-31T04:01:48;13.38;;;6.00;;
65831;SDS011;52593;42.648;23.332;2022-10-31T04:04:18;12.73;;;6.03;;
65831;SDS011;52593;42.648;23.332;2022-10-31T04:06:45;13.67;;;6.10;;
65831;SDS011;52593;42.648;23.332;2022-10-31T04:09:12;12.73;;;5.70;;
65831;SDS011;52593;42.648;23.332;2022-10-31T04:11:43;13.57;;;6.25;;
65831;SDS011;52593;42.648;23.332;2022-10-31T04:14:12;13.57;;;5.93;;
65831;SDS011;52593;42.648;23.332;2022-10-31T04:16:39;11.80;;;5.73;;
65831;SDS011;52593;42.648;23.332;2022-10-31T04:19:07;13.98;;;5.97;;
65831;SDS011;52593;42.648;23.332;2022-10-31T04:21:33;14.23;;;6.30;;
65831;SDS011;52593;42.648;23.332;2022-10-31T04:23:58;15.70;;;6.20;;
65831;SDS011;52593;42.648;23.332;2022-10-31T04:26:24;12.30;;;6.47;;
65831;SDS011;52593;42.648;23.332;2022-10-31T04:28:50;14.00;;;6.53;;
65831;SDS011;52593;42.648;23.332;2022-10-31T04:31:15;14.67;;;5.97;;
65831;SDS011;52593;42.648;23.332;2022-10-31T04:33:40;13.40;;;6.47;;
65831;SDS011;52593;42.648;23.332;2022-10-31T04:36:06;15.37;;;6.37;;
65831;SDS011;52593;42.648;23.332;2022-10-31T04:38:31;13.40;;;5.83;;
65831;SDS011;52593;42.648;23.332;2022-10-31T04:40:57;13.90;;;5.95;;
65831;SDS011;52593;42.648;23.332;2022-10-31T04:43:22;12.67;;;5.77;;
65831;SDS011;52593;42.648;23.332;2022-10-31T04:45:48;12.33;;;6.37;;
65831;SDS011;52593;42.648;23.332;2022-10-31T04:48:13;12.82;;;5.55;;
65831;SDS011;52593;42.648;23.332;2022-10-31T04:50:39;14.37;;;5.77;;
65831;SDS011;52593;42.648;23.332;2022-10-31T04:53:05;13.87;;;6.13;;
65831;SDS011;52593;42.648;23.332;2022-10-31T04:55:30;18.30;;;6.07;;
65831;SDS011;52593;42.648;23.332;2022-10-31T04:57:55;14.10;;;6.20;;
65831;SDS011;52593;42.648;23.332;2022-10-31T05:00:21;15.17;;;6.13;;
65831;SDS011;52593;42.648;23.332;2022-10-31T05:02:48;14.90;;;6.65;;
65831;SDS011;52593;42.648;23.332;2022-10-31T05:05:15;13.65;;;6.90;;
65831;SDS011;52593;42.648;23.332;2022-10-31T05:07:42;14.88;;;6.60;;
65831;SDS011;52593;42.648;23.332;2022-10-31T05:10:13;18.10;;;6.73;;
65831;SDS011;52593;42.648;23.332;2022-10-31T05:12:55;16.30;;;7.55;;
65831;SDS011;52593;42.648;23.332;2022-10-31T05:15:23;15.85;;;7.10;;
65831;SDS011;52593;42.648;23.332;2022-10-31T05:17:50;16.58;;;6.72;;
65831;SDS011;52593;42.648;23.332;2022-10-31T05:20:17;14.68;;;6.45;;
65831;SDS011;52593;42.648;23.332;2022-10-31T05:22:45;17.87;;;6.60;;
65831;SDS011;52593;42.648;23.332;2022-10-31T05:25:12;20.83;;;6.82;;
65831;SDS011;52593;42.648;23.332;2022-10-31T05:27:38;16.00;;;6.57;;
65831;SDS011;52593;42.648;23.332;2022-10-31T05:30:05;14.23;;;6.70;;
65831;SDS011;52593;42.648;23.332;2022-10-31T05:32:36;16.92;;;7.85;;
65831;SDS011;52593;42.648;23.332;2022-10-31T05:35:09;26.50;;;7.22;;
65831;SDS011;52593;42.648;23.332;2022-10-31T05:37:37;17.98;;;7.50;;
65831;SDS011;52593;42.648;23.332;2022-10-31T05:40:04;20.07;;;8.07;;
65831;SDS011;52593;42.648;23.332;2022-10-31T05:42:31;19.63;;;8.70;;
65831;SDS011;52593;42.648;23.332;2022-10-31T05:44:57;17.83;;;7.97;;
65831;SDS011;52593;42.648;23.332;2022-10-31T05:47:22;17.42;;;7.35;;
65831;SDS011;52593;42.648;23.332;2022-10-31T05:49:48;16.57;;;8.03;;
65831;SDS011;52593;42.648;23.332;2022-10-31T05:52:13;15.70;;;7.70;;
65831;SDS011;52593;42.648;23.332;2022-10-31T05:54:39;17.13;;;8.18;;
65831;SDS011;52593;42.648;23.332;2022-10-31T05:57:04;21.47;;;7.83;;
65831;SDS011;52593;42.648;23.332;2022-10-31T05:59:30;19.13;;;8.30;;
65831;SDS011;52593;42.648;23.332;2022-10-31T06:01:55;19.23;;;8.33;;
65831;SDS011;52593;42.648;23.332;2022-10-31T06:04:20;20.53;;;8.27;;
65831;SDS011;52593;42.648;23.332;2022-10-31T06:06:46;16.90;;;8.33;;
65831;SDS011;52593;42.648;23.332;2022-10-31T06:09:11;14.37;;;7.53;;
65831;SDS011;52593;42.648;23.332;2022-10-31T06:11:37;20.10;;;8.73;;
65831;SDS011;52593;42.648;23.332;2022-10-31T06:14:02;18.95;;;8.20;;
65831;SDS011;52593;42.648;23.332;2022-10-31T06:16:29;21.00;;;9.25;;
65831;SDS011;52593;42.648;23.332;2022-10-31T06:18:54;18.83;;;8.40;;
65831;SDS011;52593;42.648;23.332;2022-10-31T06:21:19;21.30;;;9.80;;
65831;SDS011;52593;42.648;23.332;2022-10-31T06:23:45;18.00;;;9.03;;
65831;SDS011;52593;42.648;23.332;2022-10-31T06:26:10;21.30;;;9.60;;
65831;SDS011;52593;42.648;23.332;2022-10-31T06:28:35;25.87;;;10.43;;
65831;SDS011;52593;42.648;23.332;2022-10-31T06:31:01;22.97;;;11.00;;
65831;SDS011;52593;42.648;23.332;2022-10-31T06:33:27;18.63;;;10.00;;
65831;SDS011;52593;42.648;23.332;2022-10-31T06:35:53;20.08;;;9.00;;
65831;SDS011;52593;42.648;23.332;2022-10-31T06:38:18;20.13;;;9.20;;
65831;SDS011;52593;42.648;23.332;2022-10-31T06:40:44;20.70;;;9.17;;
65831;SDS011;52593;42.648;23.332;2022-10-31T06:43:09;18.60;;;9.35;;
65831;SDS011;52593;42.648;23.332;2022-10-31T06:45:36;19.23;;;8.83;;
65831;SDS011;52593;42.648;23.332;2022-10-31T06:48:02;20.83;;;9.68;;
65831;SDS011;52593;42.648;23.332;2022-10-31T06:50:28;22.13;;;9.32;;
65831;SDS011;52593;42.648;23.332;2022-10-31T06:52:57;22.13;;;9.50;;
65831;SDS011;52593;42.648;23.332;2022-10-31T06:55:23;19.55;;;9.45;;
65831;SDS011;52593;42.648;23.332;2022-10-31T06:57:59;22.35;;;10.25;;
65831;SDS011;52593;42.648;23.332;2022-10-31T07:00:26;24.10;;;10.60;;
65831;SDS011;52593;42.648;23.332;2022-10-31T07:05:37;22.17;;;9.95;;
65831;SDS011;52593;42.648;23.332;2022-10-31T07:08:05;23.17;;;10.27;;
65831;SDS011;52593;42.648;23.332;2022-10-31T07:10:34;23.92;;;10.65;;
65831;SDS011;52593;42.648;23.332;2022-10-31T07:13:01;22.75;;;10.88;;
65831;SDS011;52593;42.648;23.332;2022-10-31T07:15:29;18.65;;;10.02;;
65831;SDS011;52593;42.648;23.332;2022-10-31T07:18:01;25.35;;;10.25;;
65831;SDS011;52593;42.648;23.332;2022-10-31T07:20:27;23.60;;;10.70;;
65831;SDS011;52593;42.648;23.332;2022-10-31T07:22:53;22.45;;;11.40;;
65831;SDS011;52593;42.648;23.332;2022-10-31T07:25:19;24.65;;;11.73;;
65831;SDS011;52593;42.648;23.332;2022-10-31T07:27:44;24.50;;;11.20;;
65831;SDS011;52593;42.648;23.332;2022-10-31T07:30:10;21.17;;;10.57;;
65831;SDS011;52593;42.648;23.332;2022-10-31T07:32:40;22.05;;;10.65;;
65831;SDS011;52593;42.648;23.332;2022-10-31T07:35:08;20.40;;;10.60;;
65831;SDS011;52593;42.648;23.332;2022-10-31T07:37:34;23.95;;;10.95;;
65831;SDS011;52593;42.648;23.332;2022-10-31T07:40:00;20.53;;;9.97;;
65831;SDS011;52593;42.648;23.332;2022-10-31T07:42:25;22.33;;;10.70;;
65831;SDS011;52593;42.648;23.332;2022-10-31T07:44:52;30.20;;;16.30;;
65831;SDS011;52593;42.648;23.332;2022-10-31T07:47:17;27.70;;;11.63;;
65831;SDS011;52593;42.648;23.332;2022-10-31T07:49:42;23.67;;;11.37;;
65831;SDS011;52593;42.648;23.332;2022-10-31T07:52:08;24.83;;;13.80;;
65831;SDS011;52593;42.648;23.332;2022-10-31T07:54:33;20.50;;;10.63;;
65831;SDS011;52593;42.648;23.332;2022-10-31T07:56:58;23.23;;;11.45;;
65831;SDS011;52593;42.648;23.332;2022-10-31T07:59:24;22.10;;;10.87;;
65831;SDS011;52593;42.648;23.332;2022-10-31T08:01:50;27.73;;;13.02;;
65831;SDS011;52593;42.648;23.332;2022-10-31T08:04:16;27.53;;;15.77;;
65831;SDS011;52593;42.648;23.332;2022-10-31T08:06:41;29.37;;;16.53;;
65831;SDS011;52593;42.648;23.332;2022-10-31T08:09:07;28.40;;;14.63;;
65831;SDS011;52593;42.648;23.332;2022-10-31T08:11:32;25.57;;;14.67;;
65831;SDS011;52593;42.648;23.332;2022-10-31T08:13:57;23.42;;;12.05;;
65831;SDS011;52593;42.648;23.332;2022-10-31T08:16:23;24.07;;;11.70;;
65831;SDS011;52593;42.648;23.332;2022-10-31T08:18:48;27.63;;;13.30;;
65831;SDS011;52593;42.648;23.332;2022-10-31T08:21:13;25.30;;;11.47;;
65831;SDS011;52593;42.648;23.332;2022-10-31T08:23:39;21.77;;;11.47;;
65831;SDS011;52593;42.648;23.332;2022-10-31T08:26:04;23.17;;;12.00;;
65831;SDS011;52593;42.648;23.332;2022-10-31T08:28:31;27.43;;;12.40;;
65831;SDS011;52593;42.648;23.332;2022-10-31T08:30:57;23.38;;;11.70;;
65831;SDS011;52593;42.648;23.332;2022-10-31T08:33:23;22.30;;;11.35;;
65831;SDS011;52593;42.648;23.332;2022-10-31T08:35:48;22.27;;;10.97;;
65831;SDS011;52593;42.648;23.332;2022-10-31T08:38:14;23.15;;;11.20;;
65831;SDS011;52593;42.648;23.332;2022-10-31T08:40:40;27.33;;;12.33;;
65831;SDS011;52593;42.648;23.332;2022-10-31T08:43:08;23.25;;;11.27;;
65831;SDS011;52593;42.648;23.332;2022-10-31T08:45:36;23.38;;;11.52;;
65831;SDS011;52593;42.648;23.332;2022-10-31T08:48:03;21.00;;;11.53;;
65831;SDS011;52593;42.648;23.332;2022-10-31T08:50:30;22.95;;;11.45;;
65831;SDS011;52593;42.648;23.332;2022-10-31T08:53:05;27.10;;;10.52;;
65831;SDS011;52593;42.648;23.332;2022-10-31T08:55:35;21.27;;;10.32;;
65831;SDS011;52593;42.648;23.332;2022-10-31T08:58:02;18.73;;;9.20;;
65831;SDS011;52593;42.648;23.332;2022-10-31T09:00:29;18.50;;;9.80;;
65831;SDS011;52593;42.648;23.332;2022-10-31T09:02:55;21.10;;;10.70;;
65831;SDS011;52593;42.648;23.332;2022-10-31T09:05:24;22.38;;;10.23;;
65831;SDS011;52593;42.648;23.332;2022-10-31T09:07:50;23.40;;;10.98;;
65831;SDS011;52593;42.648;23.332;2022-10-31T09:10:15;18.90;;;9.30;;
65831;SDS011;52593;42.648;23.332;2022-10-31T09:12:41;19.53;;;9.83;;
65831;SDS011;52593;42.648;23.332;2022-10-31T09:15:06;22.20;;;9.60;;
65831;SDS011;52593;42.648;23.332;2022-10-31T09:17:32;21.63;;;9.50;;
65831;SDS011;52593;42.648;23.332;2022-10-31T09:19:58;21.02;;;10.35;;
65831;SDS011;52593;42.648;23.332;2022-10-31T09:22:23;17.43;;;9.33;;
65831;SDS011;52593;42.648;23.332;2022-10-31T09:24:49;20.60;;;10.10;;
65831;SDS011;52593;42.648;23.332;2022-10-31T09:27:14;18.80;;;8.73;;
65831;SDS011;52593;42.648;23.332;2022-10-31T09:29:39;17.70;;;9.00;;
65831;SDS011;52593;42.648;23.332;2022-10-31T09:32:05;15.85;;;9.25;;
65831;SDS011;52593;42.648;23.332;2022-10-31T09:34:30;15.50;;;9.10;;
65831;SDS011;52593;42.648;23.332;2022-10-31T09:36:55;20.93;;;8.90;;
65831;SDS011;52593;42.648;23.332;2022-10-31T09:39:21;21.00;;;9.80;;
65831;SDS011;52593;42.648;23.332;2022-10-31T09:41:50;18.23;;;8.60;;
65831;SDS011;52593;42.648;23.332;2022-10-31T09:44:33;13.48;;;7.65;;
65831;SDS011;52593;42.648;23.332;2022-10-31T09:47:10;16.73;;;7.95;;
65831;SDS011;52593;42.648;23.332;2022-10-31T09:49:53;18.35;;;7.10;;
65831;SDS011;52593;42.648;23.332;2022-10-31T09:52:29;15.55;;;7.55;;
65831;SDS011;52593;42.648;23.332;2022-10-31T09:54:58;16.83;;;7.70;;
65831;SDS011;52593;42.648;23.332;2022-10-31T09:57:33;15.48;;;7.03;;
65831;SDS011;52593;42.648;23.332;2022-10-31T10:00:00;17.02;;;7.28;;
65831;SDS011;52593;42.648;23.332;2022-10-31T10:05:03;11.48;;;6.45;;
65831;SDS011;52593;42.648;23.332;2022-10-31T10:09:59;12.25;;;5.90;;
65831;SDS011;52593;42.648;23.332;2022-10-31T10:29:42;10.35;;;2.70;;
65831;SDS011;52593;42.648;23.332;2022-10-31T10:32:28;9.00;;;2.90;;
65831;SDS011;52593;42.648;23.332;2022-10-31T10:37:46;9.18;;;2.92;;
65831;SDS011;52593;42.648;23.332;2022-10-31T10:40:18;9.55;;;3.22;;
65831;SDS011;52593;42.648;23.332;2022-10-31T10:45:49;12.68;;;3.58;;
65831;SDS011;52593;42.648;23.332;2022-10-31T10:51:37;10.00;;;3.20;;
65831;SDS011;52593;42.648;23.332;2022-10-31T10:59:34;9.07;;;3.08;;
65831;SDS011;52593;42.648;23.332;2022-10-31T11:02:00;9.20;;;2.80;;
65831;SDS011;52593;42.648;23.332;2022-10-31T11:04:32;10.15;;;3.38;;
65831;SDS011;52593;42.648;23.332;2022-10-31T11:07:00;10.93;;;2.90;;
65831;SDS011;52593;42.648;23.332;2022-10-31T11:09:25;12.68;;;3.90;;
65831;SDS011;52593;42.648;23.332;2022-10-31T11:11:51;9.67;;;2.63;;
65831;SDS011;52593;42.648;23.332;2022-10-31T11:14:17;8.23;;;3.03;;
65831;SDS011;52593;42.648;23.332;2022-10-31T11:16:44;9.05;;;2.63;;
65831;SDS011;52593;42.648;23.332;2022-10-31T11:21:46;9.38;;;2.78;;
65831;SDS011;52593;42.648;23.332;2022-10-31T11:24:16;8.98;;;2.40;;
65831;SDS011;52593;42.648;23.332;2022-10-31T11:26:45;8.47;;;2.37;;
65831;SDS011;52593;42.648;23.332;2022-10-31T11:31:55;12.13;;;2.40;;
65831;SDS011;52593;42.648;23.332;2022-10-31T11:34:29;9.18;;;3.05;;
65831;SDS011;52593;42.648;23.332;2022-10-31T11:37:11;8.77;;;2.63;;
65831;SDS011;52593;42.648;23.332;2022-10-31T11:39:41;12.60;;;2.63;;
65831;SDS011;52593;42.648;23.332;2022-10-31T11:42:09;10.65;;;2.75;;
65831;SDS011;52593;42.648;23.332;2022-10-31T11:44:40;8.65;;;2.88;;
65831;SDS011;52593;42.648;23.332;2022-10-31T11:47:10;14.88;;;5.47;;
65831;SDS011;52593;42.648;23.332;2022-10-31T11:49:41;8.40;;;3.15;;
65831;SDS011;52593;42.648;23.332;2022-10-31T11:52:14;8.53;;;3.07;;
65831;SDS011;52593;42.648;23.332;2022-10-31T11:57:22;11.15;;;3.65;;
65831;SDS011;52593;42.648;23.332;2022-10-31T11:59:57;9.32;;;3.17;;
65831;SDS011;52593;42.648;23.332;2022-10-31T12:02:24;10.07;;;3.00;;
65831;SDS011;52593;42.648;23.332;2022-10-31T12:07:30;9.38;;;2.65;;
65831;SDS011;52593;42.648;23.332;2022-10-31T12:09:56;12.82;;;2.83;;
65831;SDS011;52593;42.648;23.332;2022-10-31T12:15:25;10.10;;;2.88;;
65831;SDS011;52593;42.648;23.332;2022-10-31T12:17:55;8.93;;;3.22;;
65831;SDS011;52593;42.648;23.332;2022-10-31T12:26:33;8.23;;;2.85;;
65831;SDS011;52593;42.648;23.332;2022-10-31T12:45:56;7.15;;;3.00;;
65831;SDS011;52593;42.648;23.332;2022-10-31T12:59:44;10.10;;;2.95;;
65831;SDS011;52593;42.648;23.332;2022-10-31T13:05:22;11.00;;;3.10;;
65831;SDS011;52593;42.648;23.332;2022-10-31T13:10:58;12.90;;;4.53;;
65831;SDS011;52593;42.648;23.332;2022-10-31T13:13:39;11.93;;;3.85;;
65831;SDS011;52593;42.648;23.332;2022-10-31T13:16:31;6.93;;;2.60;;
65831;SDS011;52593;42.648;23.332;2022-10-31T13:19:15;8.50;;;2.63;;
65831;SDS011;52593;42.648;23.332;2022-10-31T13:30:21;12.40;;;3.07;;
65831;SDS011;52593;42.648;23.332;2022-10-31T13:35:22;7.93;;;2.92;;
65831;SDS011;52593;42.648;23.332;2022-10-31T13:40:51;18.35;;;4.18;;
65831;SDS011;52593;42.648;23.332;2022-10-31T13:43:41;10.87;;;3.77;;
65831;SDS011;52593;42.648;23.332;2022-10-31T13:46:25;10.48;;;3.30;;
65831;SDS011;52593;42.648;23.332;2022-10-31T13:48:56;8.35;;;3.25;;
65831;SDS011;52593;42.648;23.332;2022-10-31T13:51:28;9.07;;;3.17;;
65831;SDS011;52593;42.648;23.332;2022-10-31T13:56:32;10.40;;;3.10;;
65831;SDS011;52593;42.648;23.332;2022-10-31T14:01:24;20.47;;;3.90;;
65831;SDS011;52593;42.648;23.332;2022-10-31T14:04:00;17.80;;;3.80;;
65831;SDS011;52593;42.648;23.332;2022-10-31T14:06:37;11.20;;;3.42;;
65831;SDS011;52593;42.648;23.332;2022-10-31T14:09:28;19.67;;;3.85;;
65831;SDS011;52593;42.648;23.332;2022-10-31T14:11:57;11.80;;;3.40;;
65831;SDS011;52593;42.648;23.332;2022-10-31T14:14:30;16.07;;;3.53;;
65831;SDS011;52593;42.648;23.332;2022-10-31T14:16:59;12.40;;;3.40;;
65831;SDS011;52593;42.648;23.332;2022-10-31T14:19:25;13.98;;;3.90;;
65831;SDS011;52593;42.648;23.332;2022-10-31T14:21:51;17.17;;;4.10;;
65831;SDS011;52593;42.648;23.332;2022-10-31T14:29:23;13.20;;;3.70;;
65831;SDS011;52593;42.648;23.332;2022-10-31T14:31:55;19.77;;;4.20;;
65831;SDS011;52593;42.648;23.332;2022-10-31T14:50:58;28.45;;;8.10;;
65831;SDS011;52593;42.648;23.332;2022-10-31T14:53:28;27.53;;;9.20;;
65831;SDS011;52593;42.648;23.332;2022-10-31T14:55:57;28.55;;;8.27;;
65831;SDS011;52593;42.648;23.332;2022-10-31T14:58:25;22.42;;;7.20;;
65831;SDS011;52593;42.648;23.332;2022-10-31T15:01:00;20.80;;;6.70;;
65831;SDS011;52593;42.648;23.332;2022-10-31T15:03:32;18.80;;;6.23;;
65831;SDS011;52593;42.648;23.332;2022-10-31T15:06:05;18.50;;;5.40;;
65831;SDS011;52593;42.648;23.332;2022-10-31T15:08:46;20.48;;;5.95;;
65831;SDS011;52593;42.648;23.332;2022-10-31T15:13:44;18.67;;;4.60;;
65831;SDS011;52593;42.648;23.332;2022-10-31T15:16:13;18.08;;;5.13;;
65831;SDS011;52593;42.648;23.332;2022-10-31T15:18:46;14.23;;;5.00;;
65831;SDS011;52593;42.648;23.332;2022-10-31T15:21:21;16.10;;;4.53;;
65831;SDS011;52593;42.648;23.332;2022-10-31T15:23:49;14.00;;;4.10;;
65831;SDS011;52593;42.648;23.332;2022-10-31T15:26:19;16.23;;;4.63;;
65831;SDS011;52593;42.648;23.332;2022-10-31T15:28:56;23.75;;;5.95;;
65831;SDS011;52593;42.648;23.332;2022-10-31T15:31:24;18.00;;;4.60;;
65831;SDS011;52593;42.648;23.332;2022-10-31T15:33:49;18.33;;;4.00;;
65831;SDS011;52593;42.648;23.332;2022-10-31T15:36:20;13.57;;;4.32;;
65831;SDS011;52593;42.648;23.332;2022-10-31T15:38:48;13.27;;;4.38;;
65831;SDS011;52593;42.648;23.332;2022-10-31T15:41:26;15.50;;;4.40;;
65831;SDS011;52593;42.648;23.332;2022-10-31T15:43:53;11.68;;;4.22;;
65831;SDS011;52593;42.648;23.332;2022-10-31T15:46:20;16.08;;;4.28;;
65831;SDS011;52593;42.648;23.332;2022-10-31T15:48:46;13.23;;;4.40;;
65831;SDS011;52593;42.648;23.332;2022-10-31T15:51:13;17.83;;;5.20;;
65831;SDS011;52593;42.648;23.332;2022-10-31T15:53:43;16.40;;;6.23;;
65831;SDS011;52593;42.648;23.332;2022-10-31T15:56:13;16.15;;;5.78;;
65831;SDS011;52593;42.648;23.332;2022-10-31T15:58:46;20.65;;;6.30;;
65831;SDS011;52593;42.648;23.332;2022-10-31T16:01:33;19.25;;;6.10;;
65831;SDS011;52593;42.648;23.332;2022-10-31T16:03:59;17.77;;;6.50;;
65831;SDS011;52593;42.648;23.332;2022-10-31T16:06:37;17.65;;;6.18;;
65831;SDS011;52593;42.648;23.332;2022-10-31T16:09:03;14.88;;;6.28;;
65831;SDS011;52593;42.648;23.332;2022-10-31T16:11:46;17.38;;;7.30;;
65831;SDS011;52593;42.648;23.332;2022-10-31T16:16:41;22.00;;;7.53;;
65831;SDS011;52593;42.648;23.332;2022-10-31T16:19:16;17.83;;;7.15;;
65831;SDS011;52593;42.648;23.332;2022-10-31T16:21:45;13.18;;;5.43;;
65831;SDS011;52593;42.648;23.332;2022-10-31T16:24:18;15.80;;;6.38;;
65831;SDS011;52593;42.648;23.332;2022-10-31T16:26:51;20.27;;;6.53;;
65831;SDS011;52593;42.648;23.332;2022-10-31T16:29:24;18.05;;;5.38;;
65831;SDS011;52593;42.648;23.332;2022-10-31T16:31:51;14.98;;;5.53;;
65831;SDS011;52593;42.648;23.332;2022-10-31T16:34:18;16.27;;;4.90;;
65831;SDS011;52593;42.648;23.332;2022-10-31T16:36:45;11.45;;;4.47;;
65831;SDS011;52593;42.648;23.332;2022-10-31T16:39:11;18.20;;;5.33;;
65831;SDS011;52593;42.648;23.332;2022-10-31T16:41:39;14.27;;;4.80;;
65831;SDS011;52593;42.648;23.332;2022-10-31T16:44:13;13.18;;;5.00;;
65831;SDS011;52593;42.648;23.332;2022-10-31T16:46:44;11.18;;;4.40;;
65831;SDS011;52593;42.648;23.332;2022-10-31T16:49:10;13.87;;;4.23;;
65831;SDS011;52593;42.648;23.332;2022-10-31T16:51:36;12.32;;;4.65;;
65831;SDS011;52593;42.648;23.332;2022-10-31T16:54:01;16.13;;;5.20;;
65831;SDS011;52593;42.648;23.332;2022-10-31T16:56:30;15.68;;;6.60;;
65831;SDS011;52593;42.648;23.332;2022-10-31T16:58:58;18.37;;;5.30;;
65831;SDS011;52593;42.648;23.332;2022-10-31T17:01:27;17.50;;;5.82;;
65831;SDS011;52593;42.648;23.332;2022-10-31T17:03:53;19.15;;;7.13;;
65831;SDS011;52593;42.648;23.332;2022-10-31T17:06:18;22.53;;;7.70;;
65831;SDS011;52593;42.648;23.332;2022-10-31T17:08:44;17.97;;;5.83;;
65831;SDS011;52593;42.648;23.332;2022-10-31T17:11:16;19.60;;;5.90;;
65831;SDS011;52593;42.648;23.332;2022-10-31T17:13:44;13.63;;;5.30;;
65831;SDS011;52593;42.648;23.332;2022-10-31T17:16:10;16.77;;;5.20;;
65831;SDS011;52593;42.648;23.332;2022-10-31T17:18:37;23.77;;;5.80;;